Time;durP1;ratioP1;P1;durP2;ratioP2;P2;SDS_P1;SDS_P2;PMS_P1;PMS_P2;Temp;Humidity;BMP_temperature;BMP_pressure;BME280_temperature;BME280_humidity;BME280_pressure;Samples;Min_cycle;Max_cycle;Signal;HPM_P1;HPM_P2
2023/04/02 00:01:47;;;;;;;4.65;2.42;;;;;;;3.14;49.90;100834.05;1856746;77;21447;-45
2023/04/02 00:04:21;;;;;;;6.28;2.45;;;;;;;3.02;50.13;100827.17;1872754;77;21016;-44
2023/04/02 00:06:56;;;;;;;4.22;2.35;;;;;;;3.00;50.25;100818.08;1872493;76;21024;-44
2023/04/02 00:09:30;;;;;;;8.13;2.27;;;;;;;2.99;50.35;100829.38;1858419;76;21545;-44
2023/04/02 00:12:01;;;;;;;9.43;2.30;;;;;;;2.99;50.38;100829.78;1873629;76;21435;-44
2023/04/02 00:14:35;;;;;;;4.95;1.90;;;;;;;2.96;50.51;100831.13;1871967;76;21510;-44
2023/04/02 00:17:05;;;;;;;4.50;1.65;;;;;;;2.95;50.56;100824.18;1872518;77;21540;-43
2023/04/02 00:19:40;;;;;;;10.80;2.05;;;;;;;2.95;50.47;100828.97;1872840;77;21075;-41
2023/04/02 00:22:11;;;;;;;4.55;1.90;;;;;;;2.92;50.34;100822.48;1868820;75;21087;-40
2023/04/02 00:24:40;;;;;;;5.42;1.50;;;;;;;2.90;50.36;100827.69;1872577;76;21081;-44
2023/04/02 00:27:14;;;;;;;5.67;1.92;;;;;;;2.88;50.47;100825.98;1872498;77;21028;-46
2023/04/02 00:29:50;;;;;;;8.95;2.30;;;;;;;2.84;50.49;100829.44;1873170;76;21026;-45
2023/04/02 00:32:22;;;;;;;2.65;1.42;;;;;;;2.82;50.47;100832.08;1867776;76;21113;-44
2023/04/02 00:34:51;;;;;;;8.15;1.98;;;;;;;2.79;50.48;100830.78;1877133;75;21109;-45
2023/04/02 00:37:23;;;;;;;6.12;1.80;;;;;;;2.77;50.49;100826.48;1882449;76;21108;-44
2023/04/02 00:40:05;;;;;;;3.72;1.85;;;;;;;2.76;50.57;100832.53;1881746;76;21544;-40
2023/04/02 00:42:31;;;;;;;6.00;1.98;;;;;;;2.74;50.59;100830.38;1879596;76;21179;-41
2023/04/02 00:45:03;;;;;;;8.90;2.10;;;;;;;2.72;50.66;100823.03;1879728;76;21038;-42
2023/04/02 00:47:37;;;;;;;3.45;1.98;;;;;;;2.72;50.76;100826.94;1879610;75;21039;-42
2023/04/02 00:50:14;;;;;;;6.87;2.72;;;;;;;2.70;50.71;100821.29;1879717;76;21047;-43
2023/04/02 00:52:46;;;;;;;5.87;2.02;;;;;;;2.69;50.78;100823.48;1879006;75;21489;-42
2023/04/02 00:55:23;;;;;;;7.12;2.60;;;;;;;2.68;50.79;100823.04;1879722;76;21034;-45
2023/04/02 00:57:54;;;;;;;7.03;2.35;;;;;;;2.67;50.78;100823.93;1879721;76;21117;-45
2023/04/02 01:00:26;;;;;;;11.90;2.27;;;;;;;2.66;50.81;100817.43;1879919;76;21528;-43
2023/04/02 01:03:18;;;;;;;5.47;3.20;;;;;;;2.65;50.98;100818.29;1879640;75;21113;-44
2023/04/02 01:05:52;;;;;;;7.40;3.65;;;;;;;2.64;50.93;100826.98;1874882;76;20998;-43
2023/04/02 01:08:30;;;;;;;4.00;2.80;;;;;;;2.62;50.97;100823.49;1861743;76;21116;-46
2023/04/02 01:11:01;;;;;;;11.08;2.83;;;;;;;2.56;51.25;100819.19;1862032;76;21116;-42
2023/04/02 01:13:36;;;;;;;4.75;3.05;;;;;;;2.53;51.54;100819.22;1873229;76;21102;-43
2023/04/02 01:16:20;;;;;;;6.83;2.12;;;;;;;2.54;51.65;100815.73;1879727;76;21031;-45
2023/04/02 01:18:55;;;;;;;10.10;2.27;;;;;;;2.54;51.57;100813.14;1880402;76;21536;-43
2023/04/02 01:21:27;;;;;;;6.87;2.33;;;;;;;2.55;51.42;100812.28;1876574;76;21503;-43
2023/04/02 01:24:07;;;;;;;10.20;3.35;;;;;;;2.54;51.40;100804.04;1867254;75;21019;-43
2023/04/02 01:26:54;;;;;;;11.28;2.65;;;;;;;2.55;51.38;100804.48;1879716;75;21010;-43
2023/04/02 01:29:37;;;;;;;5.78;2.52;;;;;;;2.56;51.36;100803.59;1855656;75;21067;-44
2023/04/02 01:32:11;;;;;;;6.90;2.83;;;;;;;2.56;51.27;100795.80;1890832;75;21035;-46
2023/04/02 01:34:47;;;;;;;6.33;2.83;;;;;;;2.58;51.24;100793.19;1891344;76;21739;-48
2023/04/02 01:37:35;;;;;;;4.50;2.60;;;;;;;2.59;51.26;100786.69;1889812;75;21028;-45
2023/04/02 01:40:13;;;;;;;6.05;2.77;;;;;;;2.60;51.36;100778.03;1865533;76;21054;-44
2023/04/02 01:42:47;;;;;;;14.80;3.65;;;;;;;2.58;51.45;100771.95;1872990;75;21513;-43
2023/04/02 01:45:18;;;;;;;4.45;2.42;;;;;;;2.58;51.44;100778.89;1891132;74;21039;-44
2023/04/02 01:47:48;;;;;;;14.25;2.77;;;;;;;2.58;51.43;100775.84;1891480;76;21035;-44
2023/04/02 01:50:35;;;;;;;11.10;2.92;;;;;;;2.57;51.69;100774.14;1891492;76;21051;-43
2023/04/02 01:53:08;;;;;;;5.30;2.50;;;;;;;2.56;51.82;100773.70;1890816;75;21059;-42
2023/04/02 01:55:47;;;;;;;6.03;2.75;;;;;;;2.56;51.65;100777.59;1891471;76;21502;-43
2023/04/02 01:58:19;;;;;;;6.28;3.02;;;;;;;2.56;51.58;100768.94;1891221;76;21504;-47
2023/04/02 02:00:53;;;;;;;4.70;2.33;;;;;;;2.54;51.59;100775.89;1891399;75;21047;-44
2023/04/02 02:03:24;;;;;;;10.75;2.83;;;;;;;2.50;51.75;100773.30;1891329;76;21039;-44
2023/04/02 02:05:53;;;;;;;8.90;1.90;;;;;;;2.50;51.76;100774.59;1891390;76;21760;-45
2023/04/02 02:08:35;;;;;;;9.18;2.75;;;;;;;2.48;51.84;100773.75;1891296;76;21063;-45
2023/04/02 02:11:05;;;;;;;8.50;2.98;;;;;;;2.47;52.05;100765.95;1892736;75;21046;-44
2023/04/02 02:13:34;;;;;;;4.12;2.00;;;;;;;2.49;52.06;100769.41;1890635;76;21019;-45
2023/04/02 02:16:06;;;;;;;7.55;2.55;;;;;;;2.48;51.96;100765.09;1891379;76;21485;-46
2023/04/02 02:18:35;;;;;;;5.53;1.72;;;;;;;2.45;51.95;100767.28;1891323;75;21097;-45
2023/04/02 02:21:07;;;;;;;3.92;1.80;;;;;;;2.45;52.02;100763.39;1891428;76;21486;-46
2023/04/02 02:23:35;;;;;;;2.83;1.70;;;;;;;2.45;52.07;100763.80;1891368;76;21019;-44
2023/04/02 02:26:07;;;;;;;7.83;1.50;;;;;;;2.46;52.04;100769.00;1891364;76;21039;-44
2023/04/02 02:28:38;;;;;;;5.25;1.37;;;;;;;2.49;52.06;100759.00;1891074;76;21027;-44
2023/04/02 02:31:16;;;;;;;2.67;1.07;;;;;;;2.51;52.03;100758.59;1885295;75;21064;-44
2023/04/02 02:33:52;;;;;;;2.25;1.15;;;;;;;2.52;52.02;100749.91;1872701;77;21055;-47
2023/04/02 02:36:28;;;;;;;2.85;1.40;;;;;;;2.50;52.19;100741.25;1872683;76;21052;-44
2023/04/02 02:39:04;;;;;;;5.42;1.10;;;;;;;2.52;52.19;100743.41;1872507;75;21420;-44
2023/04/02 02:41:40;;;;;;;5.85;1.00;;;;;;;2.56;52.18;100732.11;1872700;75;21127;-44
2023/04/02 02:44:12;;;;;;;1.77;0.88;;;;;;;2.57;52.24;100737.75;1872838;77;21635;-45
2023/04/02 02:46:47;;;;;;;2.50;1.20;;;;;;;2.55;52.35;100738.64;1872778;76;21000;-45
2023/04/02 02:49:19;;;;;;;3.42;1.22;;;;;;;2.56;52.50;100745.11;1872343;76;21059;-46
2023/04/02 02:51:51;;;;;;;3.67;2.02;;;;;;;2.61;52.46;100745.95;1872849;77;21115;-44
2023/04/02 02:54:21;;;;;;;4.92;2.20;;;;;;;2.66;52.42;100742.89;1872752;76;21064;-43
2023/04/02 02:56:59;;;;;;;4.28;2.20;;;;;;;2.69;52.35;100750.68;1860615;77;21055;-45
2023/04/02 02:59:31;;;;;;;6.67;1.80;;;;;;;2.69;52.92;100755.87;1841708;77;21072;-45
2023/04/02 03:02:02;;;;;;;3.85;2.15;;;;;;;2.69;52.86;100755.87;1870864;76;21068;-43
2023/04/02 03:04:34;;;;;;;8.10;2.45;;;;;;;2.69;52.76;100750.68;1872826;76;21068;-42
2023/04/02 03:07:04;;;;;;;10.72;3.17;;;;;;;2.69;52.75;100749.37;1872648;76;21158;-42
2023/04/02 03:09:42;;;;;;;6.12;2.70;;;;;;;2.67;52.81;100744.63;1872683;77;21016;-42
2023/04/02 03:12:17;;;;;;;4.55;1.80;;;;;;;2.70;52.81;100744.59;1872489;76;21063;-45
2023/04/02 03:14:55;;;;;;;3.35;1.60;;;;;;;2.74;52.79;100738.94;1846091;77;21555;-44
2023/04/02 03:17:26;;;;;;;9.35;2.62;;;;;;;2.78;52.73;100741.93;1830395;76;21004;-43
2023/04/02 03:20:05;;;;;;;8.73;2.17;;;;;;;2.83;52.65;100753.17;1872384;76;21028;-45
2023/04/02 03:22:36;;;;;;;3.98;2.45;;;;;;;2.87;52.63;100754.02;1872730;76;21020;-42
2023/04/02 03:25:25;;;;;;;5.62;2.60;;;;;;;2.94;52.61;100753.09;1872607;77;21115;-44
2023/04/02 03:27:58;;;;;;;6.65;2.98;;;;;;;2.99;52.72;100756.53;1872734;76;21514;-44
2023/04/02 03:30:45;;;;;;;13.08;3.65;;;;;;;3.06;52.84;100760.82;1871590;76;21020;-42
2023/04/02 03:33:23;;;;;;;6.62;2.70;;;;;;;3.17;52.78;100758.13;1863740;76;21502;-41
2023/04/02 03:36:01;;;;;;;3.95;2.25;;;;;;;3.32;52.61;100759.74;1872729;76;21122;-42
2023/04/02 03:38:32;;;;;;;6.90;2.92;;;;;;;3.55;52.48;100758.66;1872732;76;21075;-41
2023/04/02 03:41:07;;;;;;;3.80;2.62;;;;;;;3.90;52.36;100770.45;1872568;76;21158;-42
2023/04/02 03:43:44;;;;;;;9.55;2.98;;;;;;;4.18;52.31;100764.02;1872580;77;21048;-43
2023/04/02 03:46:26;;;;;;;5.10;2.87;;;;;;;4.44;52.25;100765.43;1872765;77;21584;-43
2023/04/02 03:49:04;;;;;;;7.35;2.95;;;;;;;4.84;52.21;100761.81;1870705;77;21063;-43
2023/04/02 03:51:36;;;;;;;12.13;3.52;;;;;;;5.08;51.97;100758.86;1872639;77;21000;-42
2023/04/02 03:54:05;;;;;;;6.20;3.12;;;;;;;5.14;51.89;100754.84;1871929;76;21027;-42
2023/04/02 03:56:39;;;;;;;7.65;2.92;;;;;;;5.34;51.94;100757.97;1872547;77;21510;-43
2023/04/02 03:59:31;;;;;;;4.58;2.47;;;;;;;5.62;51.91;100747.03;1872691;77;21067;-43
2023/04/02 04:02:20;;;;;;;11.08;2.40;;;;;;;5.73;51.65;100742.47;1871329;76;21021;-43
2023/04/02 04:04:51;;;;;;;4.62;2.60;;;;;;;6.09;51.77;100750.98;1862989;77;21833;-43
2023/04/02 04:07:22;;;;;;;9.03;3.00;;;;;;;6.27;51.72;100749.30;1867673;77;21545;-45
2023/04/02 04:09:53;;;;;;;12.65;3.27;;;;;;;6.32;51.49;100751.80;1872252;77;21051;-43
2023/04/02 04:12:42;;;;;;;10.78;4.00;;;;;;;6.36;51.31;100752.14;1873074;76;21012;-44
2023/04/02 04:15:31;;;;;;;9.63;3.83;;;;;;;6.24;51.44;100751.11;1843034;77;21091;-43
2023/04/02 04:18:09;;;;;;;11.78;5.10;;;;;;;6.19;51.48;100749.42;1872452;76;21594;-43
2023/04/02 04:20:48;;;;;;;10.08;4.80;;;;;;;6.16;51.40;100749.94;1848502;76;21075;-42
2023/04/02 04:23:30;;;;;;;11.33;5.85;;;;;;;6.10;51.20;100754.84;1872596;76;21043;-45
2023/04/02 04:26:08;;;;;;;6.47;4.55;;;;;;;6.04;51.05;100760.20;1872007;76;21535;-44
2023/04/02 04:29:11;;;;;;;8.75;3.80;;;;;;;5.95;50.98;100756.44;1872633;77;21063;-44
2023/04/02 04:31:57;;;;;;;8.40;4.35;;;;;;;5.90;50.93;100756.97;1875088;76;21129;-43
2023/04/02 04:34:25;;;;;;;14.55;3.60;;;;;;;5.96;50.99;100763.44;1879200;76;21007;-45
2023/04/02 04:37:00;;;;;;;13.15;3.02;;;;;;;6.09;51.03;100758.37;1872948;76;21019;-44
2023/04/02 04:39:59;;;;;;;6.22;3.37;;;;;;;6.28;51.00;100756.23;1869354;76;21046;-43
2023/04/02 04:42:31;;;;;;;13.30;3.72;;;;;;;6.46;50.92;100761.52;1878551;76;21119;-46
2023/04/02 04:45:15;;;;;;;8.68;3.98;;;;;;;6.71;50.86;100760.55;1882587;76;21069;-44
2023/04/02 04:47:50;;;;;;;7.83;3.75;;;;;;;6.95;50.80;100764.34;1881577;76;21141;-45
2023/04/02 04:50:26;;;;;;;7.83;4.55;;;;;;;7.29;50.87;100758.27;1880427;75;21553;-43
2023/04/02 04:52:56;;;;;;;10.32;4.53;;;;;;;7.66;50.85;100756.00;1881799;76;21148;-42
2023/04/02 04:55:37;;;;;;;6.33;3.80;;;;;;;8.24;50.95;100750.88;1879962;76;21125;-45
2023/04/02 04:58:18;;;;;;;6.92;3.42;;;;;;;9.08;51.10;100747.45;1879590;75;21070;-45
2023/04/02 05:01:00;;;;;;;12.95;3.33;;;;;;;10.00;50.67;100748.69;1865596;75;21128;-45
2023/04/02 05:03:34;;;;;;;9.13;3.98;;;;;;;10.60;49.75;100739.89;1861650;76;21116;-46
2023/04/02 05:06:13;;;;;;;10.00;3.70;;;;;;;10.99;49.24;100738.33;1861789;77;21536;-44
2023/04/02 05:08:44;;;;;;;7.37;2.50;;;;;;;11.38;48.74;100748.17;1847298;76;21120;-45
2023/04/02 05:11:17;;;;;;;5.62;2.35;;;;;;;11.86;48.26;100740.37;1861880;76;21136;-44
2023/04/02 05:13:51;;;;;;;8.88;2.70;;;;;;;12.52;47.49;100747.07;1841099;77;21085;-44
2023/04/02 05:16:35;;;;;;;8.38;3.05;;;;;;;13.14;46.94;100743.66;1861843;77;21058;-47
2023/04/02 05:19:09;;;;;;;9.65;2.70;;;;;;;13.47;45.98;100743.77;1860814;77;21128;-45
2023/04/02 05:21:50;;;;;;;6.58;2.50;;;;;;;13.59;45.50;100740.11;1847876;76;21864;-46
2023/04/02 05:24:46;;;;;;;10.05;3.12;;;;;;;13.78;44.44;100746.16;1861748;76;21513;-45
2023/04/02 05:27:41;;;;;;;12.60;2.37;;;;;;;14.20;44.31;100743.50;1877869;76;21485;-46
2023/04/02 05:30:13;;;;;;;9.78;2.90;;;;;;;14.64;43.57;100738.91;1879603;75;21059;-48
2023/04/02 05:32:45;;;;;;;9.83;2.42;;;;;;;14.99;42.45;100732.05;1885279;75;21079;-48
2023/04/02 05:35:22;;;;;;;4.53;1.90;;;;;;;15.22;41.69;100729.88;1891390;76;21063;-44
2023/04/02 05:37:51;;;;;;;9.30;1.70;;;;;;;15.49;41.22;100735.33;1891463;76;21145;-47
2023/04/02 05:40:37;;;;;;;4.53;1.35;;;;;;;15.81;40.50;100741.39;1891410;76;21106;-46
2023/04/02 05:43:09;;;;;;;6.65;1.40;;;;;;;16.16;39.88;100737.03;1891387;75;21510;-46
2023/04/02 05:45:42;;;;;;;4.78;1.30;;;;;;;16.46;39.21;100732.06;1891017;75;21071;-45
2023/04/02 05:48:20;;;;;;;5.03;1.50;;;;;;;16.71;38.43;100731.80;1891520;75;21611;-47
2023/04/02 05:50:54;;;;;;;4.33;1.27;;;;;;;16.87;37.85;100739.19;1890764;75;21075;-45
2023/04/02 05:53:37;;;;;;;7.15;2.27;;;;;;;16.97;37.28;100730.99;1890777;75;21062;-46
2023/04/02 05:56:14;;;;;;;10.60;3.02;;;;;;;17.18;36.91;100731.84;1891321;75;21490;-45
2023/04/02 05:58:46;;;;;;;8.48;2.50;;;;;;;17.43;36.71;100735.50;1874979;76;21133;-46
2023/04/02 06:01:19;;;;;;;6.10;1.80;;;;;;;17.63;36.10;100737.69;1890391;75;21213;-47
2023/04/02 06:04:13;;;;;;;5.53;2.23;;;;;;;17.83;35.87;100730.11;1891525;76;21058;-45
2023/04/02 06:06:48;;;;;;;7.00;1.70;;;;;;;18.09;35.71;100730.52;1891534;75;21160;-45
2023/04/02 06:09:38;;;;;;;13.05;2.20;;;;;;;18.26;34.98;100727.10;1891322;76;21067;-45
2023/04/02 06:12:31;;;;;;;10.85;3.27;;;;;;;18.29;34.95;100728.22;1891397;76;21121;-47
2023/04/02 06:15:01;;;;;;;8.18;3.00;;;;;;;18.16;33.78;100727.41;1891599;75;21558;-47
2023/04/02 06:17:35;;;;;;;11.80;4.20;;;;;;;18.06;33.15;100733.39;1891419;75;21125;-45
2023/04/02 06:20:05;;;;;;;4.03;1.80;;;;;;;18.33;33.32;100727.91;1890791;75;21043;-44
2023/04/02 06:22:37;;;;;;;16.27;2.30;;;;;;;18.61;32.31;100728.58;1891553;75;21097;-47
2023/04/02 06:25:09;;;;;;;4.75;1.67;;;;;;;18.71;31.77;100733.59;1891722;76;21128;-45
2023/04/02 06:27:40;;;;;;;;;;;;;;;18.93;32.01;100733.87;1892951;75;21523;-46
2023/04/02 06:30:13;;;;;;;2.80;1.02;;;;;;;19.25;31.70;100726.94;1891321;76;20440;-46
2023/04/02 06:32:42;;;;;;;1.82;1.00;;;;;;;19.44;31.32;100728.20;1869603;76;21470;-46
2023/04/02 06:35:16;;;;;;;2.10;0.90;;;;;;;19.44;30.18;100726.88;1884972;76;21051;-46
2023/04/02 06:37:49;;;;;;;1.70;0.85;;;;;;;19.45;30.15;100733.44;1884416;76;21062;-45
2023/04/02 06:40:40;;;;;;;2.17;1.10;;;;;;;19.39;29.35;100731.73;1883752;75;21058;-46
2023/04/02 06:43:22;;;;;;;1.47;0.90;;;;;;;19.29;29.06;100721.77;1884991;75;21185;-46
2023/04/02 06:46:00;;;;;;;3.10;1.42;;;;;;;19.45;28.56;100721.42;1880338;76;21157;-45
2023/04/02 06:48:33;;;;;;;2.27;0.93;;;;;;;19.70;28.13;100716.00;1883131;75;21220;-45
2023/04/02 06:51:11;;;;;;;2.92;1.20;;;;;;;19.51;27.78;100722.77;1884509;75;21040;-46
2023/04/02 06:53:42;;;;;;;3.17;1.45;;;;;;;19.39;27.28;100717.05;1884619;76;21062;-44
2023/04/02 06:56:35;;;;;;;4.60;1.47;;;;;;;19.17;27.66;100718.68;1884391;75;21124;-45
2023/04/02 06:59:06;;;;;;;3.67;1.50;;;;;;;18.81;28.34;100716.48;1884445;76;21462;-46
2023/04/02 07:01:41;;;;;;;4.72;2.00;;;;;;;18.31;28.68;100718.30;1884429;76;21463;-45
2023/04/02 07:04:10;;;;;;;3.98;1.00;;;;;;;17.79;28.74;100717.97;1883962;76;21059;-45
2023/04/02 07:06:41;;;;;;;3.40;1.40;;;;;;;17.49;29.29;100722.64;1884704;75;21573;-45
2023/04/02 07:09:10;;;;;;;10.85;2.02;;;;;;;17.20;29.27;100717.96;1884589;76;21107;-46
2023/04/02 07:11:41;;;;;;;13.00;2.25;;;;;;;16.97;29.64;100723.50;1884442;74;21110;-48
2023/04/02 07:14:12;;;;;;;8.90;2.80;;;;;;;16.72;29.82;100723.73;1884358;76;21135;-46
2023/04/02 07:16:42;;;;;;;6.53;2.67;;;;;;;16.50;30.02;100722.93;1868177;76;21238;-46
2023/04/02 07:19:20;;;;;;;8.48;2.77;;;;;;;16.41;30.30;100726.17;1869041;76;21078;-52
2023/04/02 07:21:50;;;;;;;1.65;1.00;;;;;;;16.45;30.57;100724.17;1848827;76;21161;-51
2023/04/02 07:24:21;;;;;;;4.35;1.65;;;;;;;16.49;30.61;100731.87;1852696;75;21180;-50
2023/04/02 07:26:49;;;;;;;4.60;1.27;;;;;;;16.37;30.25;100718.03;1846191;76;21086;-51
2023/04/02 07:29:18;;;;;;;2.35;1.40;;;;;;;16.28;30.46;100719.94;1846259;78;21051;-50
2023/04/02 07:31:47;;;;;;;3.58;1.17;;;;;;;16.18;30.71;100717.02;1846358;78;21129;-49
2023/04/02 07:34:16;;;;;;;3.83;1.10;;;;;;;16.07;30.78;100721.67;1858567;76;21196;-49
2023/04/02 07:36:45;;;;;;;4.70;1.42;;;;;;;15.94;30.92;100712.28;1868138;77;21038;-50
2023/04/02 07:39:14;;;;;;;4.17;1.30;;;;;;;15.84;30.86;100715.11;1868082;77;21171;-50
2023/04/02 07:41:54;;;;;;;4.67;1.30;;;;;;;15.89;31.10;100713.04;1868155;77;21132;-51
2023/04/02 07:44:22;;;;;;;1.00;0.68;;;;;;;15.97;31.24;100711.23;1868153;77;21463;-47
2023/04/02 07:46:51;;;;;;;2.80;1.27;;;;;;;16.10;31.25;100708.21;1868080;77;21171;-46
2023/04/02 07:49:20;;;;;;;1.95;0.90;;;;;;;16.22;31.12;100693.30;1868164;75;21117;-48
2023/04/02 07:51:52;;;;;;;3.00;1.50;;;;;;;16.54;31.05;100705.86;1868172;77;21454;-48
2023/04/02 07:54:20;;;;;;;0.80;0.47;;;;;;;16.96;30.78;100705.34;1868107;77;21461;-48
2023/04/02 07:56:49;;;;;;;2.27;0.78;;;;;;;17.30;30.24;100703.09;1868334;75;21105;-50
2023/04/02 07:59:18;;;;;;;2.15;0.70;;;;;;;17.52;30.13;100706.47;1868119;75;21046;-50
2023/04/02 08:01:47;;;;;;;1.40;0.90;;;;;;;17.94;29.83;100706.27;1868204;77;21043;-50
2023/04/02 08:04:21;;;;;;;0.68;0.50;;;;;;;18.30;29.35;100701.95;1868084;75;21034;-46
2023/04/02 08:06:51;;;;;;;2.02;0.90;;;;;;;19.02;28.53;100698.50;1868088;77;21597;-49
2023/04/02 08:09:20;;;;;;;5.00;0.80;;;;;;;19.84;28.30;100695.77;1868208;77;21116;-51
2023/04/02 08:11:48;;;;;;;1.30;0.80;;;;;;;20.91;26.75;100694.77;1868043;75;21124;-49
2023/04/02 08:14:17;;;;;;;4.50;1.00;;;;;;;21.27;26.81;100692.66;1868103;75;21539;-53
2023/04/02 08:16:52;;;;;;;3.27;1.20;;;;;;;21.15;26.65;100694.03;1868078;77;21116;-51
2023/04/02 08:19:21;;;;;;;3.15;0.80;;;;;;;21.55;26.45;100687.16;1868185;76;21050;-49
2023/04/02 08:21:51;;;;;;;6.50;1.27;;;;;;;21.37;26.11;100687.70;1868089;76;21049;-50
2023/04/02 08:24:20;;;;;;;6.83;2.08;;;;;;;21.03;26.52;100681.70;1868251;77;21132;-49
2023/04/02 08:26:50;;;;;;;4.35;1.00;;;;;;;20.50;26.56;100685.63;1868087;75;21042;-50
2023/04/02 08:29:19;;;;;;;1.70;1.05;;;;;;;19.95;26.82;100690.42;1868040;77;21523;-49
2023/04/02 08:31:47;;;;;;;2.60;1.10;;;;;;;19.37;26.79;100692.30;1868016;76;21058;-47
2023/04/02 08:34:16;;;;;;;1.77;1.00;;;;;;;19.04;27.03;100699.23;1868183;75;21149;-49
2023/04/02 08:36:45;;;;;;;2.85;0.80;;;;;;;18.80;27.34;100691.21;1868055;75;21101;-49
2023/04/02 08:39:13;;;;;;;9.68;1.87;;;;;;;18.70;27.83;100701.69;1868044;75;21505;-49
2023/04/02 08:42:00;;;;;;;4.70;1.20;;;;;;;18.45;27.92;100699.99;1868016;76;21092;-47
2023/04/02 08:44:37;;;;;;;5.15;1.45;;;;;;;18.17;28.14;100701.98;1867765;76;21042;-48
2023/04/02 08:47:09;;;;;;;6.35;1.35;;;;;;;17.89;28.42;100696.41;1867061;77;21011;-48
2023/04/02 08:49:45;;;;;;;1.12;0.80;;;;;;;17.60;28.70;100684.64;1868171;77;21054;-46
2023/04/02 08:52:26;;;;;;;2.75;1.17;;;;;;;17.34;28.75;100685.95;1863409;76;21133;-48
2023/04/02 08:54:56;;;;;;;5.10;1.35;;;;;;;17.11;29.03;100684.84;1868155;77;21512;-50
2023/04/02 08:57:49;;;;;;;3.83;1.20;;;;;;;16.96;29.33;100688.05;1868058;76;21053;-51
2023/04/02 09:00:29;;;;;;;4.42;1.27;;;;;;;16.81;29.29;100688.20;1867412;75;21038;-48
2023/04/02 09:03:10;;;;;;;3.40;1.22;;;;;;;16.67;29.46;100688.61;1867354;75;21500;-49
2023/04/02 09:05:42;;;;;;;8.35;1.98;;;;;;;16.56;29.53;100690.66;1867650;77;21042;-47
2023/04/02 09:08:19;;;;;;;4.62;1.60;;;;;;;16.49;29.72;100697.33;1868083;76;21127;-50
2023/04/02 09:11:00;;;;;;;3.77;2.00;;;;;;;16.41;29.87;100694.28;1867894;75;21090;-50
2023/04/02 09:13:31;;;;;;;14.90;1.85;;;;;;;16.32;29.99;100694.87;1868132;76;21058;-51
2023/04/02 09:16:05;;;;;;;5.00;1.50;;;;;;;16.25;30.12;100694.44;1868214;77;21493;-49
2023/04/02 09:18:35;;;;;;;5.12;1.70;;;;;;;16.21;30.23;100691.12;1866997;75;21128;-47
2023/04/02 09:21:09;;;;;;;6.35;1.60;;;;;;;16.20;30.46;100693.38;1867903;77;21054;-50
2023/04/02 09:23:37;;;;;;;5.80;1.80;;;;;;;16.19;30.50;100694.80;1865683;75;21042;-50
2023/04/02 09:26:11;;;;;;;7.87;1.72;;;;;;;16.20;30.73;100701.35;1868018;77;21050;-47
2023/04/02 09:28:41;;;;;;;4.87;1.20;;;;;;;16.20;30.78;100705.82;1865474;75;21492;-47
2023/04/02 09:31:12;;;;;;;2.58;1.05;;;;;;;16.15;30.79;100701.27;1867988;77;21054;-47
2023/04/02 09:33:50;;;;;;;5.65;1.30;;;;;;;16.14;30.92;100696.92;1867083;75;21105;-50
2023/04/02 09:36:37;;;;;;;2.35;1.02;;;;;;;16.11;30.72;100700.61;1867985;77;21578;-50
2023/04/02 09:39:25;;;;;;;5.60;1.17;;;;;;;16.08;30.62;100694.14;1868163;76;21513;-46
2023/04/02 09:41:55;;;;;;;2.90;0.90;;;;;;;16.14;30.69;100696.92;1868094;75;21529;-45
2023/04/02 09:44:25;;;;;;;2.98;0.93;;;;;;;16.27;30.44;100694.31;1868122;77;21184;-45
2023/04/02 09:46:58;;;;;;;6.15;0.93;;;;;;;16.43;29.84;100695.03;1868105;75;21100;-49
2023/04/02 09:49:36;;;;;;;0.95;0.60;;;;;;;16.64;29.09;100695.47;1868371;76;21128;-47
2023/04/02 09:52:22;;;;;;;0.70;0.50;;;;;;;16.84;26.19;100688.01;1868178;77;21078;-49
2023/04/02 09:55:17;;;;;;;0.72;0.50;;;;;;;16.93;26.72;100690.06;1867845;77;21495;-47
2023/04/02 09:57:48;;;;;;;0.40;0.40;;;;;;;17.04;26.63;100694.67;1868223;77;21042;-47
2023/04/02 10:00:21;;;;;;;2.50;0.60;;;;;;;17.18;26.79;100699.92;1868229;77;21050;-49
2023/04/02 10:03:20;;;;;;;0.57;0.57;;;;;;;17.24;26.23;100691.52;1868159;77;21112;-46
2023/04/02 10:05:49;;;;;;;0.98;0.50;;;;;;;17.34;25.77;100687.28;1868064;76;21042;-49
2023/04/02 10:08:29;;;;;;;1.77;0.90;;;;;;;17.40;24.74;100683.34;1868206;77;21189;-46
2023/04/02 10:11:01;;;;;;;2.60;1.17;;;;;;;17.59;25.22;100676.27;1868093;77;21030;-48
2023/04/02 10:13:38;;;;;;;3.70;1.07;;;;;;;17.80;24.58;100685.04;1868068;76;21222;-48
2023/04/02 10:16:19;;;;;;;1.17;0.70;;;;;;;17.78;23.68;100690.95;1868199;77;21517;-47
2023/04/02 10:18:59;;;;;;;1.10;0.53;;;;;;;17.74;23.81;100695.19;1868225;75;21492;-49
2023/04/02 10:21:37;;;;;;;0.60;0.50;;;;;;;17.81;23.59;100688.09;1866466;77;21493;-47
2023/04/02 10:24:11;;;;;;;0.35;0.35;;;;;;;17.91;24.07;100677.20;1868254;75;21026;-46
2023/04/02 10:26:55;;;;;;;0.50;0.50;;;;;;;18.04;23.70;100673.19;1865598;77;21046;-49
2023/04/02 10:29:46;;;;;;;0.55;0.55;;;;;;;18.10;23.15;100669.58;1868185;76;21097;-46
2023/04/02 10:32:23;;;;;;;0.60;0.40;;;;;;;18.35;23.43;100667.80;1867512;77;21061;-47
2023/04/02 10:35:10;;;;;;;0.40;0.33;;;;;;;18.44;22.27;100669.83;1868179;77;21120;-47
2023/04/02 10:37:50;;;;;;;0.65;0.50;;;;;;;18.45;21.63;100662.17;1868205;77;21054;-49
2023/04/02 10:40:25;;;;;;;1.67;0.50;;;;;;;18.66;21.98;100658.89;1867083;77;21100;-48
2023/04/02 10:43:32;;;;;;;0.90;0.45;;;;;;;18.97;21.50;100669.97;1868305;75;21484;-46
2023/04/02 10:46:07;;;;;;;0.78;0.45;;;;;;;19.32;21.26;100666.43;1868109;76;21540;-50
2023/04/02 10:49:03;;;;;;;1.40;0.50;;;;;;;19.43;20.27;100672.62;1868030;75;21050;-48
2023/04/02 10:51:49;;;;;;;1.87;0.70;;;;;;;19.33;20.47;100666.31;1867082;75;21108;-49
2023/04/02 10:54:40;;;;;;;0.80;0.65;;;;;;;19.14;20.47;100653.52;1868145;77;21570;-47
2023/04/02 10:57:18;;;;;;;0.70;0.70;;;;;;;18.82;20.74;100662.14;1868082;75;21102;-47
2023/04/02 10:59:51;;;;;;;5.90;1.10;;;;;;;18.51;21.60;100657.72;1868159;75;21050;-46
2023/04/02 11:02:31;;;;;;;0.70;0.60;;;;;;;18.33;21.96;100659.94;1867452;77;21050;-48
2023/04/02 11:05:02;;;;;;;4.65;0.80;;;;;;;18.12;21.80;100663.66;1866588;75;21128;-46
2023/04/02 11:07:34;;;;;;;1.00;0.82;;;;;;;17.93;21.94;100667.29;1867991;75;21042;-46
2023/04/02 11:10:05;;;;;;;1.82;1.00;;;;;;;17.81;22.27;100665.45;1867853;76;21113;-49
2023/04/02 11:12:39;;;;;;;1.15;0.57;;;;;;;17.73;22.62;100658.85;1868070;75;21054;-47
2023/04/02 11:15:16;;;;;;;2.72;0.50;;;;;;;17.71;22.90;100658.11;1867796;75;21038;-49
2023/04/02 11:17:46;;;;;;;0.62;0.40;;;;;;;17.65;22.85;100655.89;1868007;75;21521;-50
2023/04/02 11:20:50;;;;;;;2.42;0.90;;;;;;;17.61;23.18;100656.20;1868082;77;21061;-47
2023/04/02 11:23:20;;;;;;;4.12;0.70;;;;;;;17.57;23.45;100654.23;1868277;75;21575;-47
2023/04/02 11:25:49;;;;;;;0.90;0.57;;;;;;;17.49;23.67;100653.92;1868050;77;21066;-48
2023/04/02 11:28:32;;;;;;;0.72;0.60;;;;;;;17.47;23.79;100653.18;1868078;75;21043;-48
2023/04/02 11:31:01;;;;;;;2.20;0.60;;;;;;;17.50;23.72;100659.60;1868359;77;21030;-46
2023/04/02 11:33:38;;;;;;;4.17;0.50;;;;;;;17.47;23.52;100660.67;1868053;75;21034;-50
2023/04/02 11:36:26;;;;;;;0.57;0.40;;;;;;;17.43;23.16;100670.30;1861012;75;21083;-46
2023/04/02 11:38:54;;;;;;;2.02;1.07;;;;;;;17.42;23.24;100664.61;1835149;78;21154;-48
2023/04/02 11:42:01;;;;;;;3.45;1.22;;;;;;;17.52;23.44;100665.66;1835175;77;21118;-50
2023/04/02 11:44:30;;;;;;;2.58;1.17;;;;;;;17.69;23.79;100658.70;1835133;78;21059;-48
2023/04/02 11:47:20;;;;;;;1.87;1.27;;;;;;;17.99;24.21;100657.52;1834923;76;21055;-47
2023/04/02 11:50:00;;;;;;;6.55;1.42;;;;;;;18.12;23.91;100654.83;1833765;78;21072;-47
2023/04/02 11:52:34;;;;;;;4.05;0.93;;;;;;;18.26;24.11;100657.80;1835078;78;21173;-47
2023/04/02 11:55:06;;;;;;;1.60;0.85;;;;;;;18.31;23.99;100660.53;1832027;78;21044;-46
2023/04/02 11:57:59;;;;;;;2.58;0.80;;;;;;;18.29;23.45;100654.92;1833112;78;21560;-47
2023/04/02 12:01:03;;;;;;;5.10;0.80;;;;;;;18.31;23.57;100649.88;1835015;77;21040;-50
2023/04/02 12:03:58;;;;;;;3.37;0.62;;;;;;;18.34;23.21;100655.45;1835014;76;21557;-48
2023/04/02 12:06:47;;;;;;;1.80;0.70;;;;;;;18.30;21.93;100647.31;1835084;78;21486;-48
2023/04/02 12:09:26;;;;;;;5.42;0.78;;;;;;;18.42;22.70;100652.22;1835201;78;21020;-49